May 23, 2022

Time Code Weather Temp. Visibility Clouds Wind METAR/SPECI
10:30 am
M
64 °F 6¼ mi+ 1,900 ft 270°   270° 11 kt METAR LFMK 230830Z AUTO 27011KT 240V300 9999 OVC019 18/15 Q1011 BECMG 27018G30KT
10:00 am
M
64 °F 6¼ mi+ 1,500 ft 280°   280° 12 kt METAR LFMK 230800Z AUTO 28012KT 240V300 9999 BKN015 OVC022 18/15 Q1011 BECMG 27018G30KT
9:30 am
M
64 °F 6¼ mi+ 1,700 ft 270°   270° 10 kt METAR LFMK 230730Z AUTO 27010KT 9999 OVC017 18/15 Q1010 BECMG 27018G30KT
9:00 am
M
64 °F 6¼ mi+ 1,800 ft 280°   280° 12 kt METAR LFMK 230700Z AUTO 28012KT 9999 OVC018 18/15 Q1010 NOSIG
8:30 am
M
64 °F 6¼ mi+ 1,600 ft 280°   280° 10 kt METAR LFMK 230630Z AUTO 28010KT 9999 OVC016 18/15 Q1010 NOSIG
8:00 am
M
64 °F 6¼ mi+ 2,100 ft 280°   280° 10 kt METAR LFMK 230600Z AUTO 28010KT 9999 OVC021 18/15 Q1010 NOSIG
7:30 am
M
64 °F 6¼ mi+ 2,000 ft 270°   270° 12 kt METAR LFMK 230530Z AUTO 27012KT 230V290 9999 FEW015 BKN020 OVC027 18/15 Q1010 NOSIG
7:00 am
M
66 °F 6¼ mi+ 2,400 ft 270°   270° 8 kt METAR LFMK 230500Z AUTO 27008KT 230V290 9999 FEW017 OVC024 19/16 Q1009 NOSIG
6:30 am
M
66 °F 6¼ mi+ 2,400 ft 260°   260° 8 kt METAR LFMK 230430Z AUTO 26008KT 9999 OVC024 19/16 Q1009 NOSIG
6:00 am
M
66 °F 6¼ mi+ 2,500 ft 260°   260° 8 kt METAR LFMK 230400Z AUTO 26008KT 230V290 9999 OVC025 19/16 Q1009 NOSIG
5:30 am
M
66 °F 6¼ mi+ 2,600 ft 260°   260° 9 kt METAR LFMK 230330Z AUTO 26009KT 230V290 9999 BKN026 OVC052 19/16 Q1009 NOSIG
5:00 am
V
66 °F 6¼ mi+ 3,100 ft 280°   280° 9 kt METAR LFMK 230300Z AUTO 28009KT 240V300 9999 BKN031 BKN038 OVC044 19/16 Q1009
4:30 am
M
68 °F 6¼ mi+ 2,200 ft 270°   270° 9 kt METAR LFMK 230230Z AUTO 27009KT 240V300 9999 OVC022 20/16 Q1010
4:00 am
I
66 °F 5⅝ mi 800 ft 280°   280° 4 kt METAR LFMK 230200Z AUTO 28004KT 240V310 9000 BKN008 BKN012 OVC020 19/18 Q1010
3:30 am
M
66 °F 6¼ mi+ 1,400 ft Var   Var 2 kt METAR LFMK 230130Z AUTO VRB02KT 9999 SCT007 OVC014 19/18 Q1010
3:00 am
I
66 °F 6¼ mi+ 700 ft 030°   030° 6 kt METAR LFMK 230100Z AUTO 03006KT 300V100 9999 OVC007 19/18 Q1010
2:30 am
I
66 °F 6¼ mi+ 700 ft 070°   070° 6 kt METAR LFMK 230030Z AUTO 07006KT 9999 BKN007 OVC170 19/18 Q1008
2:00 am
V
66 °F 6¼ mi+ 18,000 ft 060°   060° 7 kt METAR LFMK 230000Z AUTO 06007KT 9999 FEW007 OVC180 19/18 Q1008
1:30 am
V
66 °F 6¼ mi+ 20,000 ft 070°   070° 9 kt METAR LFMK 222330Z AUTO 07009KT 9999 SCT009 BKN200 OVC230 19/18 Q1009
1:00 am
V
68 °F 6¼ mi+ 21,000 ft 100°   100° 8 kt METAR LFMK 222300Z AUTO 10008KT 060V150 9999 SCT008 OVC210 20/18 Q1009
12:30 am
I
68 °F 6¼ mi+ 900 ft 040°   040° 10 kt METAR LFMK 222230Z AUTO 04010KT 010V070 9999 BKN009 BKN013 OVC160 20/18 Q1010
12:00 am
V
68 °F 6¼ mi+ 16,000 ft 090°   090° 10 kt METAR LFMK 222200Z AUTO 09010KT 9999 FEW011 BKN160 OVC220 20/18 Q1009

May 22, 2022

Time Code Weather Temp. Visibility Clouds Wind METAR/SPECI
11:30 pm
V
68 °F 6¼ mi+ - 080°   080° 11 kt METAR LFMK 222130Z AUTO 08011KT 060V120 CAVOK 20/18 Q1008
11:00 pm
V
68 °F 6¼ mi+ - 080°   080° 12 kt METAR LFMK 222100Z AUTO 08012KT CAVOK 20/18 Q1008
10:30 pm
V
70 °F 6¼ mi+ - 080°   080° 16 kt METAR LFMK 222030Z AUTO 08016KT CAVOK 21/18 Q1008
10:00 pm
V
72 °F 6¼ mi+ - 080°   080° 11 kt METAR LFMK 222000Z AUTO 08011KT 060V120 CAVOK 22/18 Q1008
9:30 pm
V
72 °F 6¼ mi+ - 080°   080° 12 kt METAR LFMK 221930Z AUTO 08012KT CAVOK 22/18 Q1008
9:00 pm
V
73 °F 6¼ mi+ - 080°   080° 10 kt METAR LFMK 221900Z AUTO 08010KT CAVOK 23/19 Q1008
8:30 pm
V
75 °F 6¼ mi+ - 070°   070° 14 kt METAR LFMK 221830Z AUTO 07014KT CAVOK 24/19 Q1007
8:00 pm
V
77 °F 6¼ mi+ - 030°   030° 5 kt METAR LFMK 221800Z AUTO 03005KT 340V050 CAVOK 25/19 Q1007 NOSIG
7:30 pm
V
79 °F 6¼ mi+ - 080°   080° 10 kt METAR LFMK 221730Z AUTO 08010KT 060V120 9999 FEW072/// //////TCU 26/19 Q1008 BECMG NSC
7:00 pm
V
81 °F 6¼ mi+ - 100°   100° 7 kt METAR LFMK 221700Z AUTO 10007KT 070V150 CAVOK 27/19 Q1008 TEMPO FEW080CB
6:30 pm
V
82 °F 6¼ mi+ - 090°   090° 9 kt METAR LFMK 221630Z AUTO 09009KT 070V130 CAVOK 28/19 Q1008 TEMPO FEW080CB
6:00 pm
V
82 °F 6¼ mi+ - 080°   080° 12 kt METAR LFMK 221600Z AUTO 08012KT CAVOK 28/19 Q1008 TEMPO FEW080CB
5:30 pm
V
86 °F 6¼ mi+ - 080°   080° 14 kt METAR LFMK 221530Z AUTO 08014KT CAVOK 30/18 Q1008 TEMPO FEW080CB
5:00 pm
V
84 °F 6¼ mi+ - 080°   080° 14 kt METAR LFMK 221500Z AUTO 08014KT CAVOK 29/15 Q1009 TEMPO FEW080CB
4:30 pm
V
86 °F 6¼ mi+ - 080°   080° 14 kt METAR LFMK 221430Z AUTO 08014KT 9999 //////TCU 30/17 Q1008 TEMPO 09015G25KT BECMG NSC
4:00 pm
V
86 °F 6¼ mi+ - 080°   080° 14 kt METAR LFMK 221400Z AUTO 08014KT 060V120 CAVOK 30/17 Q1009 TEMPO 09015G25KT
3:30 pm
V
86 °F 6¼ mi+ - 080°   080° 14 kt METAR LFMK 221330Z AUTO 08014KT 050V130 CAVOK 30/16 Q1009 TEMPO 09015G25KT
3:00 pm
V
86 °F 6¼ mi+ - 080°   080° 15 kt METAR LFMK 221300Z AUTO 08015KT CAVOK 30/16 Q1010 TEMPO 09015G25KT
2:30 pm
V
84 °F 6¼ mi+ - 090°   090° 13 kt METAR LFMK 221230Z AUTO 09013KT 070V130 CAVOK 29/16 Q1010 TEMPO 09015G25KT
2:00 pm
V
84 °F 6¼ mi+ - 080°   080° 13 kt METAR LFMK 221200Z AUTO 08013KT 050V110 CAVOK 29/16 Q1010 TEMPO 09015G25KT
1:30 pm
V
84 °F 6¼ mi+ - 090°   090° 10 kt METAR LFMK 221130Z AUTO 09010KT 060V150 CAVOK 29/15 Q1011 TEMPO 09015G25KT
1:00 pm
V
82 °F 6¼ mi+ - 090°   090° 10 kt METAR LFMK 221100Z AUTO 09010KT 070V140 CAVOK 28/15 Q1011 TEMPO 09015G25KT
12:30 pm
V
81 °F 6¼ mi+ - 090°   090° 10 kt METAR LFMK 221030Z AUTO 09010KT 050V140 CAVOK 27/17 Q1012 TEMPO 09015G25KT
12:00 pm
V
79 °F 6¼ mi+ - 080°   080° 9 kt METAR LFMK 221000Z AUTO 08009KT CAVOK 26/17 Q1012 TEMPO 09015G25KT
11:30 am
V
77 °F 6¼ mi+ - 080°   080° 8 kt METAR LFMK 220930Z AUTO 08008KT 050V120 CAVOK 25/16 Q1012 TEMPO 09015G25KT
11:00 am
V
77 °F 6¼ mi+ - 080°   080° 9 kt METAR LFMK 220900Z AUTO 08009KT 060V120 CAVOK 25/15 Q1012 NOSIG
10:30 am
V
75 °F 6¼ mi+ - 080°   080° 9 kt METAR LFMK 220830Z AUTO 08009KT 050V110 CAVOK 24/16 Q1013 BECMG 08015G25KT
10:00 am
V
72 °F 6¼ mi+ - 080°   080° 7 kt METAR LFMK 220800Z AUTO 08007KT 050V120 CAVOK 22/17 Q1013 BECMG 08015G25KT
9:30 am
V
70 °F 6¼ mi+ - 080°   080° 6 kt METAR LFMK 220730Z AUTO 08006KT 050V110 9999 FEW008 21/18 Q1013 BECMG 08015G25KT
9:00 am
I
68 °F 6¼ mi+ 700 ft 080°   080° 5 kt METAR LFMK 220700Z AUTO 08005KT 060V130 9999 BKN007 20/17 Q1013 BECMG NSC
8:30 am
I
66 °F 6¼ mi+ 600 ft 070°   070° 7 kt METAR LFMK 220630Z AUTO 07007KT 9999 BKN006 19/17 Q1013 BECMG NSC
8:00 am
I
64 °F 6¼ mi+ 500 ft 070°   070° 4 kt METAR LFMK 220600Z AUTO 07004KT 9999 BKN005 18/17 Q1014 BECMG NSC
7:30 am
L
64 °F 5⅝ mi 400 ft 070°   070° 4 kt METAR LFMK 220530Z AUTO 07004KT 040V110 9000 BKN004 18/17 Q1014 BECMG NSC
7:00 am
L
63 °F 5 mi 400 ft 080°   080° 6 kt METAR LFMK 220500Z AUTO 08006KT 060V130 8000 BKN004 17/17 Q1013 BECMG NSC
6:30 am
V
63 °F 5⅝ mi - 090°   090° 5 kt METAR LFMK 220430Z AUTO 09005KT 060V140 9000 SCT005 17/17 Q1013 NOSIG
6:00 am
M
63 °F 3¾ mi - 090°   090° 5 kt METAR LFMK 220400Z AUTO 09005KT 070V130 6000 FEW004 17/17 Q1013 TEMPO OVC002
5:30 am
L
64 °F 3¾ mi 400 ft 090°   090° 5 kt METAR LFMK 220330Z AUTO 09005KT 060V130 6000 BKN004 18/17 Q1013 BECMG NSC
5:00 am
L
64 °F 3⅛ mi 200 ft 090°   090° 9 kt METAR LFMK 220300Z AUTO 09009KT 5000 BR OVC002 18/17 Q1013 BECMG NSC
4:30 am
L
64 °F 4⅜ mi 400 ft 090°   090° 9 kt METAR LFMK 220230Z AUTO 09009KT 060V120 7000 BKN004 18/17 Q1013
4:00 am
V
64 °F 5 mi - 090°   090° 8 kt METAR LFMK 220200Z AUTO 09008KT 060V130 8000 FEW005 18/17 Q1014
3:30 am
V
64 °F 6¼ mi+ - 090°   090° 7 kt METAR LFMK 220130Z AUTO 09007KT 070V140 CAVOK 18/17 Q1014
3:00 am
V
64 °F 6¼ mi+ - 100°   100° 6 kt METAR LFMK 220100Z AUTO 10006KT 070V140 CAVOK 18/17 Q1014
2:30 am
V
64 °F 6¼ mi+ - 100°   100° 5 kt METAR LFMK 220030Z AUTO 10005KT 070V140 CAVOK 18/17 Q1014
2:00 am
V
66 °F 6¼ mi+ - 100°   100° 5 kt METAR LFMK 220000Z AUTO 10005KT 070V130 CAVOK 19/17 Q1015
1:30 am
V
64 °F 6¼ mi+ - 070°   070° 5 kt METAR LFMK 212330Z AUTO 07005KT 040V100 CAVOK 18/17 Q1015
1:00 am
V
66 °F 6¼ mi+ - 060°   060° 5 kt METAR LFMK 212300Z AUTO 06005KT CAVOK 19/17 Q1016
12:30 am
V
66 °F 6¼ mi+ - 060°   060° 6 kt METAR LFMK 212230Z AUTO 06006KT CAVOK 19/17 Q1016
12:00 am
V
70 °F 6¼ mi+ - 090°   090° 4 kt METAR LFMK 212200Z AUTO 09004KT CAVOK 21/17 Q1016

May 21, 2022

Time Code Weather Temp. Visibility Clouds Wind METAR/SPECI
11:30 pm
V
70 °F 6¼ mi+ - 090°   090° 5 kt METAR LFMK 212130Z AUTO 09005KT 060V130 CAVOK 21/17 Q1016
11:00 pm
V
70 °F 6¼ mi+ - 080°   080° 5 kt METAR LFMK 212100Z AUTO 08005KT CAVOK 21/17 Q1016
10:30 pm
V
72 °F 6¼ mi+ - 070°   070° 5 kt METAR LFMK 212030Z AUTO 07005KT CAVOK 22/16 Q1016
10:00 pm
V
73 °F 6¼ mi+ - 100°   100° 5 kt METAR LFMK 212000Z AUTO 10005KT 070V140 CAVOK 23/16 Q1016
9:30 pm
V
73 °F 6¼ mi+ - 100°   100° 3 kt METAR LFMK 211930Z AUTO 10003KT 070V130 CAVOK 23/16 Q1016
9:00 pm
V
75 °F 6¼ mi+ - 080°   080° 7 kt METAR LFMK 211900Z AUTO 08007KT CAVOK 24/16 Q1016
8:30 pm
V
77 °F 6¼ mi+ - 080°   080° 9 kt METAR LFMK 211830Z AUTO 08009KT CAVOK 25/16 Q1016
8:00 pm
V
79 °F 6¼ mi+ - 070°   070° 10 kt METAR LFMK 211800Z AUTO 07010KT CAVOK 26/16 Q1016 NOSIG
7:30 pm
V
81 °F 6¼ mi+ - 080°   080° 10 kt METAR LFMK 211730Z AUTO 08010KT CAVOK 27/16 Q1016 NOSIG
7:00 pm
V
82 °F 6¼ mi+ - 080°   080° 11 kt METAR LFMK 211700Z AUTO 08011KT CAVOK 28/17 Q1016 NOSIG
6:30 pm
V
82 °F 6¼ mi+ - 090°   090° 11 kt METAR LFMK 211630Z AUTO 09011KT CAVOK 28/16 Q1016 NOSIG
6:00 pm
V
84 °F 6¼ mi+ - 090°   090° 12 kt METAR LFMK 211600Z AUTO 09012KT CAVOK 29/16 Q1016 NOSIG
5:30 pm
V
84 °F 6¼ mi+ - 090°   090° 11 kt METAR LFMK 211530Z AUTO 09011KT 070V150 CAVOK 29/16 Q1017 NOSIG
5:00 pm
V
84 °F 6¼ mi+ - 100°   100° 11 kt METAR LFMK 211500Z AUTO 10011KT 070V150 CAVOK 29/16 Q1017 TEMPO 09015G25KT
4:30 pm
V
84 °F 6¼ mi+ - 090°   090° 12 kt METAR LFMK 211430Z AUTO 09012KT 060V130 CAVOK 29/16 Q1017 TEMPO 09015G25KT
4:00 pm
V
84 °F 6¼ mi+ - 080°   080° 15 kt METAR LFMK 211400Z AUTO 08015KT CAVOK 29/16 Q1017 TEMPO 09015G25KT
3:30 pm
V
84 °F 6¼ mi+ - 090°   090° 15 kt METAR LFMK 211330Z AUTO 09015KT 060V120 CAVOK 29/17 Q1018 TEMPO 09015G25KT
3:00 pm
V
84 °F 6¼ mi+ - 090°   090° 14 kt METAR LFMK 211300Z AUTO 09014KT 060V120 CAVOK 29/17 Q1018 TEMPO 09015G25KT
2:30 pm
V
84 °F 6¼ mi+ - 090°   090° 14 kt METAR LFMK 211230Z AUTO 09014KT 060V130 CAVOK 29/19 Q1018 TEMPO 09015G25KT
2:00 pm
V
82 °F 6¼ mi+ - 080°   080° 16 kt METAR LFMK 211200Z AUTO 08016KT 060V140 CAVOK 28/18 Q1018 TEMPO 09015G25KT
1:30 pm
V
81 °F 6¼ mi+ - 090°   090° 14 kt METAR LFMK 211130Z AUTO 09014KT 060V120 CAVOK 27/18 Q1019 TEMPO 09015G25KT
1:00 pm
V
81 °F 6¼ mi+ - 080°   080° 18 kt METAR LFMK 211100Z AUTO 08018KT CAVOK 27/17 Q1019 TEMPO 09015G25KT
12:30 pm
V
79 °F 6¼ mi+ - 090°   090° 15 kt METAR LFMK 211030Z AUTO 09015KT CAVOK 26/17 Q1019 TEMPO 09015G25KT
12:00 pm
V
79 °F 6¼ mi+ - 080°   080° 18 kt METAR LFMK 211000Z AUTO 08018KT 060V130 CAVOK 26/15 Q1019 NOSIG
11:30 am
V
77 °F 6¼ mi+ - 090°   090° 16 kt METAR LFMK 210930Z AUTO 09016KT CAVOK 25/15 Q1020 NOSIG
11:00 am
V
75 °F 6¼ mi+ - 090°   090° 16 kt METAR LFMK 210900Z AUTO 09016KT CAVOK 24/15 Q1020 NOSIG
Older data

Download our app

Easy access to all aviation weather on your mobile phone and tablet.
With many features not available on the website, like offline support and a personal airport list.

We and third parties follow your internet behavior on our website with cookies. If you continue, we assume you agree with our cookie policy. Learn more